createdAt,value
2023-09-03T00:00:21.087Z,2.88
2023-09-03T00:02:23.732Z,2.92
2023-09-03T00:04:26.377Z,3.33
2023-09-03T00:06:29.232Z,3.33
2023-09-03T00:08:30.906Z,3.33
2023-09-03T00:10:36.261Z,3.15
2023-09-03T00:12:39.510Z,3.20
2023-09-03T00:14:42.244Z,3.60
2023-09-03T00:16:46.317Z,3.40
2023-09-03T00:18:49.437Z,3.22
2023-09-03T00:20:58.185Z,3.17
2023-09-03T00:23:00.892Z,3.30
2023-09-03T00:25:03.676Z,3.50
2023-09-03T00:27:06.324Z,3.58
2023-09-03T00:29:08.981Z,3.28
2023-09-03T00:31:11.848Z,2.97
2023-09-03T00:33:15.894Z,3.08
2023-09-03T00:35:19.118Z,3.53
2023-09-03T00:37:20.807Z,3.53
2023-09-03T00:39:23.460Z,3.85
2023-09-03T00:41:26.161Z,3.42
2023-09-03T00:43:29.481Z,3.25
2023-09-03T00:45:32.352Z,3.88
2023-09-03T00:47:35.445Z,3.40
2023-09-03T00:49:43.397Z,3.75
2023-09-03T00:51:46.099Z,3.97
2023-09-03T00:53:50.741Z,3.83
2023-09-03T00:55:54.361Z,3.53
2023-09-03T00:57:57.456Z,3.80
2023-09-03T01:00:00.412Z,3.88
2023-09-03T01:02:03.108Z,3.40
2023-09-03T01:04:06.410Z,3.95
2023-09-03T01:06:09.593Z,3.90
2023-09-03T01:08:13.746Z,3.47
2023-09-03T01:10:16.946Z,3.53
2023-09-03T01:12:23.404Z,3.47
2023-09-03T01:14:34.346Z,3.30
2023-09-03T01:16:44.536Z,3.10
2023-09-03T01:18:51.120Z,3.50
2023-09-03T01:21:17.427Z,3.63
2023-09-03T01:23:40.626Z,3.95
2023-09-03T01:25:54.458Z,3.78
2023-09-03T01:28:06.573Z,3.13
2023-09-03T01:30:11.179Z,3.40
2023-09-03T01:32:14.981Z,3.63
2023-09-03T01:34:18.652Z,3.97
2023-09-03T01:36:21.403Z,3.33
2023-09-03T01:38:24.072Z,3.00
2023-09-03T01:40:26.793Z,3.25
2023-09-03T01:42:29.425Z,3.10
2023-09-03T01:44:32.348Z,3.47
2023-09-03T01:46:45.290Z,3.40
2023-09-03T01:49:02.128Z,3.20
2023-09-03T01:51:12.897Z,3.35
2023-09-03T01:53:22.242Z,3.38
2023-09-03T01:55:28.251Z,3.60
2023-09-03T01:57:34.581Z,3.00
2023-09-03T01:59:41.336Z,3.35
2023-09-03T02:01:47.290Z,3.28
2023-09-03T02:03:51.729Z,3.15
2023-09-03T02:05:54.481Z,3.10
2023-09-03T02:07:58.536Z,3.58
2023-09-03T02:10:01.241Z,3.20
2023-09-03T02:12:04.033Z,3.25
2023-09-03T02:14:06.738Z,3.03
2023-09-03T02:16:09.421Z,3.33
2023-09-03T02:18:13.424Z,2.95
2023-09-03T02:20:17.078Z,3.13
2023-09-03T02:22:20.214Z,3.28
2023-09-03T02:24:22.999Z,3.13
2023-09-03T02:26:25.669Z,3.40
2023-09-03T02:28:28.405Z,3.65
2023-09-03T02:30:31.084Z,3.20
2023-09-03T02:32:33.905Z,3.45
2023-09-03T02:34:37.905Z,3.20
2023-09-03T02:36:40.556Z,3.55
2023-09-03T02:38:45.192Z,3.42
2023-09-03T02:40:47.443Z,4.25
2023-09-03T02:42:50.130Z,3.10
2023-09-03T02:44:52.774Z,3.15
2023-09-03T02:46:54.469Z,3.30
2023-09-03T02:48:57.502Z,3.70
2023-09-03T02:51:03.161Z,3.50
2023-09-03T02:53:06.663Z,3.60
2023-09-03T02:55:11.896Z,3.92
2023-09-03T02:57:14.534Z,3.97
2023-09-03T02:59:16.263Z,4.07
2023-09-03T03:01:20.483Z,4.45
2023-09-03T03:03:23.258Z,3.85
2023-09-03T03:05:26.473Z,4.20
2023-09-03T03:07:29.616Z,4.47
2023-09-03T03:09:32.319Z,4.35
2023-09-03T03:11:35.018Z,3.92
2023-09-03T03:13:39.642Z,3.95
2023-09-03T03:15:41.504Z,3.90
2023-09-03T03:17:44.292Z,3.90
2023-09-03T03:19:50.763Z,4.20
2023-09-03T03:21:53.418Z,3.60
2023-09-03T03:23:57.409Z,3.90
2023-09-03T03:26:00.109Z,3.42
2023-09-03T03:28:02.755Z,3.88
2023-09-03T03:30:06.522Z,3.58
2023-09-03T03:32:09.512Z,3.97
2023-09-03T03:34:15.194Z,3.70
2023-09-03T03:36:21.197Z,3.92
2023-09-03T03:38:23.871Z,3.45
2023-09-03T03:40:27.856Z,3.35
2023-09-03T03:42:30.488Z,3.30
2023-09-03T03:44:33.416Z,3.60
2023-09-03T03:46:36.192Z,3.95
2023-09-03T03:48:39.134Z,3.38
2023-09-03T03:50:41.857Z,3.78
2023-09-03T03:52:44.516Z,3.20
2023-09-03T03:54:47.189Z,3.28
2023-09-03T03:56:51.360Z,3.25
2023-09-03T03:58:53.065Z,3.17
2023-09-03T04:00:56.210Z,3.10
2023-09-03T04:03:00.672Z,3.50
2023-09-03T04:05:03.533Z,2.78
2023-09-03T04:07:07.470Z,3.20
2023-09-03T04:09:10.137Z,3.20
2023-09-03T04:11:14.462Z,2.83
2023-09-03T04:13:18.461Z,3.40
2023-09-03T04:15:21.074Z,3.08
2023-09-03T04:17:24.212Z,3.25
2023-09-03T04:19:26.859Z,3.15
2023-09-03T04:21:29.521Z,3.05
2023-09-03T04:23:32.210Z,2.75
2023-09-03T04:25:33.913Z,3.05
2023-09-03T04:27:36.549Z,3.20
2023-09-03T04:29:40.540Z,2.75
2023-09-03T04:31:43.182Z,2.80
2023-09-03T04:33:44.919Z,2.65
2023-09-03T04:35:47.620Z,2.80
2023-09-03T04:37:51.571Z,2.53
2023-09-03T04:39:54.334Z,2.88
2023-09-03T04:41:57.639Z,2.70
2023-09-03T04:44:08.214Z,3.22
2023-09-03T04:46:13.657Z,2.60
2023-09-03T04:48:16.461Z,2.92
2023-09-03T04:50:19.095Z,2.55
2023-09-03T04:52:21.746Z,2.70
2023-09-03T04:54:24.923Z,2.63
2023-09-03T04:56:27.622Z,2.83
2023-09-03T04:58:30.258Z,2.58
2023-09-03T05:00:33.679Z,2.95
2023-09-03T05:02:37.773Z,2.80
2023-09-03T05:04:40.542Z,2.83
2023-09-03T05:06:43.227Z,2.78
2023-09-03T05:08:46.862Z,2.92
2023-09-03T05:10:49.561Z,3.45
2023-09-03T05:12:51.240Z,2.78
2023-09-03T05:14:54.164Z,2.97
2023-09-03T05:16:56.779Z,3.00
2023-09-03T05:19:05.815Z,3.17
2023-09-03T05:21:12.343Z,2.85
2023-09-03T05:23:14.970Z,3.10
2023-09-03T05:25:17.926Z,3.00
2023-09-03T05:27:20.653Z,2.65
2023-09-03T05:29:23.360Z,3.03
2023-09-03T05:31:26.081Z,2.88
2023-09-03T05:33:28.771Z,2.90
2023-09-03T05:35:32.773Z,2.80
2023-09-03T05:37:35.557Z,3.15
2023-09-03T05:39:38.471Z,3.25
2023-09-03T05:41:41.098Z,3.10
2023-09-03T05:43:43.730Z,2.88
2023-09-03T05:45:46.799Z,3.03
2023-09-03T05:47:49.676Z,2.72
2023-09-03T05:49:56.123Z,3.22
2023-09-03T05:52:00.131Z,3.30
2023-09-03T05:54:02.848Z,3.45
2023-09-03T05:56:06.109Z,3.10
2023-09-03T05:58:08.806Z,3.35
2023-09-03T06:00:12.482Z,3.30
2023-09-03T06:02:14.212Z,3.30
2023-09-03T06:04:18.021Z,2.67
2023-09-03T06:06:20.644Z,3.47
2023-09-03T06:08:24.644Z,2.50
2023-09-03T06:10:27.353Z,3.25
2023-09-03T06:12:29.977Z,3.20
2023-09-03T06:14:32.898Z,3.00
2023-09-03T06:16:35.619Z,3.05
2023-09-03T06:18:38.408Z,2.97
2023-09-03T06:20:41.122Z,2.92
2023-09-03T06:22:43.769Z,2.65
2023-09-03T06:24:47.746Z,2.40
2023-09-03T06:26:50.420Z,3.17
2023-09-03T06:28:53.069Z,2.80
2023-09-03T06:30:58.353Z,2.67
2023-09-03T06:33:01.136Z,2.90
2023-09-03T06:35:04.498Z,2.67
2023-09-03T06:37:08.561Z,2.65
2023-09-03T06:39:11.213Z,2.63
2023-09-03T06:41:18.465Z,3.08
2023-09-03T06:43:21.147Z,3.22
2023-09-03T06:45:23.800Z,3.20
2023-09-03T06:47:26.562Z,3.50
2023-09-03T06:49:29.290Z,3.63
2023-09-03T06:51:30.982Z,3.22
2023-09-03T06:53:33.640Z,3.50
2023-09-03T06:55:36.358Z,3.50
2023-09-03T06:57:40.355Z,3.17
2023-09-03T06:59:43.115Z,3.17
2023-09-03T07:01:45.751Z,3.20
2023-09-03T07:03:48.437Z,2.80
2023-09-03T07:05:51.119Z,2.90
2023-09-03T07:07:53.736Z,3.20
2023-09-03T07:09:56.509Z,2.63
2023-09-03T07:11:59.209Z,3.70
2023-09-03T07:14:03.212Z,3.47
2023-09-03T07:16:06.519Z,3.28
2023-09-03T07:18:09.289Z,3.33
2023-09-03T07:20:12.745Z,3.15
2023-09-03T07:22:15.454Z,3.35
2023-09-03T07:24:18.128Z,3.40
2023-09-03T07:26:20.782Z,2.90
2023-09-03T07:28:23.650Z,3.47
2023-09-03T07:30:27.830Z,3.15
2023-09-03T07:32:30.571Z,3.08
2023-09-03T07:34:33.506Z,3.65
2023-09-03T07:36:36.191Z,2.97
2023-09-03T07:38:39.504Z,3.22
2023-09-03T07:40:42.206Z,3.40
2023-09-03T07:42:44.854Z,3.67
2023-09-03T07:44:47.511Z,3.17
2023-09-03T07:46:51.566Z,3.60
2023-09-03T07:48:54.272Z,3.28
2023-09-03T07:50:56.943Z,4.00
2023-09-03T07:53:00.318Z,3.50
2023-09-03T07:55:03.459Z,4.05
2023-09-03T07:57:06.883Z,3.63
2023-09-03T07:59:09.592Z,3.30
2023-09-03T08:01:13.214Z,4.00
2023-09-03T08:03:17.246Z,4.07
2023-09-03T08:05:19.246Z,3.95
2023-09-03T08:07:21.884Z,3.80
2023-09-03T08:09:25.619Z,3.17
2023-09-03T08:11:28.967Z,3.40
2023-09-03T08:13:31.605Z,3.20
2023-09-03T08:15:43.434Z,3.30
2023-09-03T08:17:46.860Z,4.32
2023-09-03T08:19:51.673Z,3.38
2023-09-03T08:21:54.324Z,3.70
2023-09-03T08:23:56.961Z,3.17
2023-09-03T08:26:02.031Z,3.28
2023-09-03T08:28:06.884Z,3.30
2023-09-03T08:30:12.268Z,3.50
2023-09-03T08:32:15.110Z,3.63
2023-09-03T08:34:17.850Z,3.42
2023-09-03T08:36:21.741Z,3.42
2023-09-03T08:38:24.493Z,3.42
2023-09-03T08:40:27.422Z,3.13
2023-09-03T08:42:30.700Z,3.65
2023-09-03T08:44:37.744Z,3.53
2023-09-03T08:46:44.196Z,3.03
2023-09-03T08:48:50.686Z,3.20
2023-09-03T08:50:54.193Z,3.55
2023-09-03T08:52:59.417Z,3.60
2023-09-03T08:55:03.276Z,4.13
2023-09-03T08:57:07.137Z,3.58
2023-09-03T08:59:11.870Z,3.33
2023-09-03T09:01:17.765Z,3.40
2023-09-03T09:03:23.800Z,3.50
2023-09-03T09:05:26.864Z,3.90
2023-09-03T09:07:29.966Z,3.85
2023-09-03T09:09:36.344Z,3.63
2023-09-03T09:11:41.791Z,3.40
2023-09-03T09:13:55.192Z,4.25
2023-09-03T09:15:58.217Z,3.85
2023-09-03T09:18:01.315Z,3.75
2023-09-03T09:20:04.816Z,3.45
2023-09-03T09:22:07.690Z,3.28
2023-09-03T09:24:10.576Z,3.63
2023-09-03T09:26:19.013Z,3.90
2023-09-03T09:28:23.075Z,3.92
2023-09-03T09:30:31.117Z,3.60
2023-09-03T09:32:35.079Z,3.70
2023-09-03T09:34:43.853Z,3.90
2023-09-03T09:36:56.173Z,3.08
2023-09-03T09:39:06.882Z,3.35
2023-09-03T09:41:30.693Z,3.23
2023-09-03T09:43:47.504Z,3.15
2023-09-03T09:45:53.116Z,3.15
2023-09-03T09:48:05.663Z,3.60
2023-09-03T09:50:08.795Z,3.47
2023-09-03T09:52:11.720Z,4.00
2023-09-03T09:54:14.492Z,3.70
2023-09-03T09:56:20.212Z,3.65
2023-09-03T09:58:24.268Z,3.50
2023-09-03T10:00:36.641Z,3.50
2023-09-03T10:02:39.693Z,3.65
2023-09-03T10:04:42.963Z,3.30
2023-09-03T10:06:45.932Z,3.20
2023-09-03T10:08:51.870Z,3.20
2023-09-03T10:10:54.997Z,3.17
2023-09-03T10:12:57.780Z,2.80
2023-09-03T10:15:01.870Z,3.42
2023-09-03T10:17:06.638Z,3.30
2023-09-03T10:19:15.590Z,3.15
2023-09-03T10:21:26.248Z,2.70
2023-09-03T10:23:42.160Z,3.22
2023-09-03T10:25:56.559Z,2.92
2023-09-03T10:28:09.297Z,2.88
2023-09-03T10:30:17.675Z,2.75
2023-09-03T10:32:22.825Z,2.97
2023-09-03T10:34:25.672Z,3.50
2023-09-03T10:36:28.673Z,3.03
2023-09-03T10:38:34.349Z,3.17
2023-09-03T10:40:37.111Z,2.70
2023-09-03T10:42:39.720Z,2.78
2023-09-03T10:44:42.934Z,2.53
2023-09-03T10:47:05.691Z,2.60
2023-09-03T10:49:09.567Z,2.85
2023-09-03T10:51:32.191Z,2.75
2023-09-03T10:53:35.786Z,2.33
2023-09-03T10:55:39.001Z,2.20
2023-09-03T10:57:41.124Z,3.00
2023-09-03T11:00:13.266Z,2.22
2023-09-03T11:02:30.906Z,2.28
2023-09-03T11:04:38.598Z,2.20
2023-09-03T11:06:50.344Z,2.30
2023-09-03T11:09:25.763Z,1.98
2023-09-03T11:11:31.610Z,2.20
2023-09-03T11:13:38.943Z,2.00
2023-09-03T11:15:58.207Z,2.10
2023-09-03T11:18:02.321Z,2.28
2023-09-03T11:20:05.869Z,2.30
2023-09-03T11:22:08.537Z,2.10
2023-09-03T11:24:16.145Z,1.73
2023-09-03T11:26:18.873Z,2.25
2023-09-03T11:28:21.504Z,1.90
2023-09-03T11:30:24.369Z,2.03
2023-09-03T11:32:37.444Z,2.38
2023-09-03T11:34:44.470Z,1.70
2023-09-03T11:36:47.288Z,1.58
2023-09-03T11:38:51.123Z,1.52
2023-09-03T11:40:57.586Z,1.58
2023-09-03T11:43:00.333Z,1.48
2023-09-03T11:45:05.393Z,1.45
2023-09-03T11:47:08.122Z,1.70
2023-09-03T11:49:22.983Z,1.40
2023-09-03T11:51:29.662Z,1.35
2023-09-03T11:53:39.970Z,1.60
2023-09-03T11:55:46.882Z,1.70
2023-09-03T11:57:50.944Z,1.77
2023-09-03T11:59:53.672Z,1.63
2023-09-03T12:01:56.701Z,1.60
2023-09-03T12:04:00.176Z,1.23
2023-09-03T12:06:05.544Z,1.58
2023-09-03T12:08:09.863Z,1.52
2023-09-03T12:10:11.776Z,1.50
2023-09-03T12:12:14.576Z,1.40
2023-09-03T12:14:29.549Z,1.42
2023-09-03T12:16:32.246Z,1.30
2023-09-03T12:18:35.264Z,1.10
2023-09-03T12:20:39.883Z,1.55
2023-09-03T12:22:43.533Z,1.10
2023-09-03T12:24:49.214Z,1.40
2023-09-03T12:27:00.679Z,1.33
2023-09-03T12:31:08.333Z,1.08
2023-09-03T12:33:10.259Z,1.38
2023-09-03T12:35:17.620Z,1.10
2023-09-03T12:37:20.373Z,1.10
2023-09-03T12:39:30.005Z,1.13
2023-09-03T12:41:35.999Z,1.02
2023-09-03T12:43:38.261Z,0.90
2023-09-03T12:45:40.910Z,1.20
2023-09-03T12:47:43.762Z,1.55
2023-09-03T12:49:46.518Z,1.40
2023-09-03T12:51:49.484Z,1.35
2023-09-03T12:53:52.732Z,1.13
2023-09-03T12:55:56.780Z,1.58
2023-09-03T12:58:00.846Z,1.40
2023-09-03T13:00:06.092Z,1.40
2023-09-03T13:02:08.985Z,1.50
2023-09-03T13:04:13.131Z,1.45
2023-09-03T13:06:16.029Z,1.35
2023-09-03T13:08:17.703Z,1.40
2023-09-03T13:10:21.436Z,1.60
2023-09-03T13:12:24.224Z,1.25
2023-09-03T13:14:28.286Z,1.33
2023-09-03T13:16:31.087Z,1.58
2023-09-03T13:18:36.173Z,1.58
2023-09-03T13:20:40.532Z,1.55
2023-09-03T13:22:43.574Z,2.13
2023-09-03T13:24:49.838Z,1.48
2023-09-03T13:26:53.821Z,1.73
2023-09-03T13:28:55.525Z,1.83
2023-09-03T13:31:07.386Z,1.50
2023-09-03T13:33:11.658Z,1.65
2023-09-03T13:35:13.573Z,1.38
2023-09-03T13:37:16.373Z,1.42
2023-09-03T13:39:19.057Z,1.83
2023-09-03T13:41:24.084Z,1.65
2023-09-03T13:43:26.965Z,1.80
2023-09-03T13:45:29.882Z,1.63
2023-09-03T13:47:33.035Z,1.42
2023-09-03T13:49:36.366Z,1.55
2023-09-03T13:51:40.738Z,1.60
2023-09-03T13:53:49.253Z,1.60
2023-09-03T13:55:52.833Z,1.70
2023-09-03T13:57:56.116Z,1.88
2023-09-03T13:59:58.099Z,1.45
2023-09-03T14:02:00.797Z,1.25
2023-09-03T14:04:06.261Z,1.30
2023-09-03T14:06:10.507Z,1.30
2023-09-03T14:08:13.333Z,1.48
2023-09-03T14:10:16.104Z,1.38
2023-09-03T14:12:18.740Z,1.00
2023-09-03T14:14:21.395Z,1.05
2023-09-03T14:16:24.065Z,0.98
2023-09-03T14:18:28.893Z,1.27
2023-09-03T14:20:38.072Z,1.55
2023-09-03T14:22:43.293Z,1.30
2023-09-03T14:24:46.734Z,1.20
2023-09-03T14:26:49.463Z,1.17
2023-09-03T14:28:55.435Z,1.30
2023-09-03T14:31:01.986Z,1.45
2023-09-03T14:33:05.295Z,1.42
2023-09-03T14:35:08.433Z,1.10
2023-09-03T14:37:12.738Z,1.35
2023-09-03T14:39:15.913Z,1.10
2023-09-03T14:41:17.600Z,1.17
2023-09-03T14:43:20.505Z,1.30
2023-09-03T14:45:23.786Z,1.80
2023-09-03T14:47:26.635Z,1.20
2023-09-03T14:49:44.164Z,1.05
2023-09-03T14:51:47.913Z,1.00
2023-09-03T14:53:53.035Z,0.90
2023-09-03T14:55:55.717Z,1.40
2023-09-03T14:57:58.322Z,1.23
2023-09-03T15:00:01.043Z,1.27
2023-09-03T15:02:03.881Z,1.20
2023-09-03T15:04:06.580Z,1.70
2023-09-03T15:06:09.249Z,1.77
2023-09-03T15:08:13.112Z,1.80
2023-09-03T15:10:17.166Z,1.25
2023-09-03T15:12:18.844Z,1.17
2023-09-03T15:14:21.460Z,1.40
2023-09-03T15:16:24.750Z,1.35
2023-09-03T15:18:26.476Z,1.33
2023-09-03T15:20:30.869Z,1.38
2023-09-03T15:22:33.492Z,1.70
2023-09-03T15:24:37.282Z,1.50
2023-09-03T15:26:41.335Z,1.33
2023-09-03T15:28:43.143Z,1.40
2023-09-03T15:30:45.841Z,1.27
2023-09-03T15:32:48.578Z,1.35
2023-09-03T15:34:51.273Z,1.30
2023-09-03T15:36:53.950Z,1.30
2023-09-03T15:38:56.576Z,1.20
2023-09-03T15:40:58.342Z,1.30
2023-09-03T15:43:02.441Z,1.40
2023-09-03T15:45:08.382Z,1.33
2023-09-03T15:47:11.091Z,1.38
2023-09-03T15:49:13.764Z,1.15
2023-09-03T15:51:16.407Z,1.10
2023-09-03T15:53:18.688Z,1.50
2023-09-03T15:55:21.847Z,1.20
2023-09-03T15:57:24.487Z,1.10
2023-09-03T15:59:29.419Z,1.50
2023-09-03T16:01:32.088Z,1.35
2023-09-03T16:03:36.368Z,1.38
2023-09-03T16:05:39.054Z,1.30
2023-09-03T16:07:41.763Z,1.20
2023-09-03T16:09:45.041Z,1.20
2023-09-03T16:11:47.905Z,1.40
2023-09-03T16:13:50.573Z,1.17
2023-09-03T16:15:54.659Z,1.33
2023-09-03T16:17:57.361Z,1.20
2023-09-03T16:20:00.251Z,1.27
2023-09-03T16:22:02.967Z,1.40
2023-09-03T16:24:06.010Z,1.25
2023-09-03T16:26:08.667Z,1.23
2023-09-03T16:28:11.317Z,1.50
2023-09-03T16:30:13.241Z,1.52
2023-09-03T16:32:17.413Z,1.20
2023-09-03T16:34:20.126Z,1.02
2023-09-03T16:36:22.812Z,1.30
2023-09-03T16:38:25.507Z,1.30
2023-09-03T16:40:28.170Z,1.40
2023-09-03T16:42:30.842Z,1.20
2023-09-03T16:44:33.517Z,1.10
2023-09-03T16:46:36.257Z,1.13
2023-09-03T16:48:40.549Z,1.05
2023-09-03T16:50:47.340Z,1.45
2023-09-03T16:52:50.233Z,1.30
2023-09-03T16:54:54.565Z,1.33
2023-09-03T16:56:56.473Z,1.20
2023-09-03T16:59:00.218Z,1.25
2023-09-03T17:01:03.176Z,1.30
2023-09-03T17:03:06.619Z,1.40
2023-09-03T17:05:11.316Z,1.38
2023-09-03T17:07:14.151Z,1.48
2023-09-03T17:09:16.869Z,1.48
2023-09-03T17:11:19.577Z,1.30
2023-09-03T17:13:22.497Z,1.30
2023-09-03T17:15:25.369Z,1.40
2023-09-03T17:17:28.023Z,1.38
2023-09-03T17:19:30.870Z,1.40
2023-09-03T17:21:33.888Z,1.50
2023-09-03T17:23:40.141Z,1.30
2023-09-03T17:25:42.842Z,1.35
2023-09-03T17:27:45.480Z,1.40
2023-09-03T17:29:48.264Z,1.75
2023-09-03T17:31:52.951Z,1.75
2023-09-03T17:33:55.690Z,1.65
2023-09-03T17:35:58.432Z,1.95
2023-09-03T17:38:02.508Z,1.70
2023-09-03T17:40:06.604Z,1.80
2023-09-03T17:42:09.246Z,1.90
2023-09-03T17:44:11.896Z,1.70
2023-09-03T17:46:14.619Z,1.65
2023-09-03T17:48:17.910Z,1.70
2023-09-03T17:50:20.700Z,1.83
2023-09-03T17:52:23.609Z,1.55
2023-09-03T17:54:27.587Z,1.63
2023-09-03T17:56:30.278Z,1.70
2023-09-03T17:58:32.906Z,1.63
2023-09-03T18:00:35.991Z,1.67
2023-09-03T18:02:38.712Z,1.65
2023-09-03T18:04:41.420Z,1.70
2023-09-03T18:06:44.083Z,1.55
2023-09-03T18:08:47.487Z,1.80
2023-09-03T18:10:51.528Z,1.55
2023-09-03T18:12:54.239Z,1.70
2023-09-03T18:14:56.891Z,1.80
2023-09-03T18:16:59.743Z,1.70
2023-09-03T18:19:02.406Z,1.90
2023-09-03T18:21:04.350Z,1.55
2023-09-03T18:23:07.067Z,2.13
2023-09-03T18:25:10.676Z,2.10
2023-09-03T18:27:14.660Z,2.33
2023-09-03T18:29:17.371Z,1.73
2023-09-03T18:31:20.063Z,2.33
2023-09-03T18:33:21.976Z,1.90
2023-09-03T18:35:24.603Z,1.95
2023-09-03T18:37:27.284Z,2.47
2023-09-03T18:39:31.353Z,2.00
2023-09-03T18:41:34.004Z,1.90
2023-09-03T18:43:37.963Z,2.10
2023-09-03T18:45:40.625Z,1.65
2023-09-03T18:47:43.359Z,1.77
2023-09-03T18:49:46.391Z,1.70
2023-09-03T18:51:48.797Z,2.33
2023-09-03T18:53:51.455Z,1.75
2023-09-03T18:55:54.164Z,2.13
2023-09-03T18:57:56.823Z,2.78
2023-09-03T19:00:00.841Z,2.42
2023-09-03T19:02:03.590Z,2.42
2023-09-03T19:04:06.665Z,2.53
2023-09-03T19:06:11.235Z,2.40
2023-09-03T19:08:13.923Z,2.50
2023-09-03T19:10:16.712Z,3.10
2023-09-03T19:12:19.390Z,2.45
2023-09-03T19:14:22.051Z,2.53
2023-09-03T19:16:26.695Z,2.40
2023-09-03T19:18:29.866Z,2.22
2023-09-03T19:20:32.503Z,2.92
2023-09-03T19:22:35.313Z,2.53
2023-09-03T19:24:37.961Z,2.92
2023-09-03T19:26:40.624Z,2.85
2023-09-03T19:28:43.367Z,2.33
2023-09-03T19:30:46.857Z,1.83
2023-09-03T19:32:51.376Z,2.50
2023-09-03T19:34:54.535Z,2.40
2023-09-03T19:36:57.169Z,2.78
2023-09-03T19:38:59.792Z,2.60
2023-09-03T19:41:02.471Z,2.28
2023-09-03T19:43:05.461Z,2.45
2023-09-03T19:45:09.318Z,2.70
2023-09-03T19:47:11.997Z,2.40
2023-09-03T19:49:16.093Z,2.35
2023-09-03T19:51:18.808Z,2.35
2023-09-03T19:53:20.792Z,2.50
2023-09-03T19:55:23.521Z,2.50
2023-09-03T19:57:26.259Z,2.42
2023-09-03T19:59:29.540Z,2.15
2023-09-03T20:01:32.351Z,2.60
2023-09-03T20:03:35.634Z,2.85
2023-09-03T20:05:40.285Z,2.92
2023-09-03T20:07:45.418Z,2.17
2023-09-03T20:09:49.438Z,2.53
2023-09-03T20:11:52.139Z,2.50
2023-09-03T20:13:57.623Z,2.30
2023-09-03T20:16:00.465Z,2.83
2023-09-03T20:18:03.320Z,2.78
2023-09-03T20:20:07.844Z,3.08
2023-09-03T20:22:11.829Z,3.35
2023-09-03T20:24:14.573Z,2.25
2023-09-03T20:26:17.576Z,2.63
2023-09-03T20:28:25.787Z,2.80
2023-09-03T20:30:34.464Z,2.28
2023-09-03T20:32:37.502Z,2.40
2023-09-03T20:34:43.597Z,3.15
2023-09-03T20:36:46.521Z,2.72
2023-09-03T20:38:50.599Z,2.28
2023-09-03T20:40:52.946Z,2.80
2023-09-03T20:42:55.759Z,2.53
2023-09-03T20:44:58.602Z,2.35
2023-09-03T20:47:01.333Z,2.70
2023-09-03T20:49:05.446Z,2.60
2023-09-03T20:51:08.210Z,3.03
2023-09-03T20:53:11.918Z,2.58
2023-09-03T20:55:16.009Z,2.88
2023-09-03T20:57:18.629Z,2.50
2023-09-03T20:59:21.494Z,2.20
2023-09-03T21:01:26.083Z,2.63
2023-09-03T21:03:28.891Z,2.25
2023-09-03T21:05:32.467Z,2.42
2023-09-03T21:07:34.196Z,2.58
2023-09-03T21:09:37.001Z,2.80
2023-09-03T21:11:41.143Z,2.60
2023-09-03T21:13:44.091Z,2.33
2023-09-03T21:15:46.722Z,2.90
2023-09-03T21:17:50.032Z,2.58
2023-09-03T21:19:52.775Z,2.88
2023-09-03T21:21:55.449Z,2.50
2023-09-03T21:23:58.248Z,3.20
2023-09-03T21:26:01.188Z,2.45
2023-09-03T21:28:04.671Z,2.65
2023-09-03T21:30:08.430Z,2.65
2023-09-03T21:32:13.545Z,2.55
2023-09-03T21:34:16.798Z,2.50
2023-09-03T21:36:19.051Z,2.85
2023-09-03T21:38:21.868Z,2.63
2023-09-03T21:40:24.833Z,3.00
2023-09-03T21:42:26.547Z,2.78
2023-09-03T21:44:34.713Z,3.03
2023-09-03T21:46:37.390Z,2.95
2023-09-03T21:48:40.046Z,2.67
2023-09-03T21:50:42.826Z,2.80
2023-09-03T21:52:44.482Z,2.90
2023-09-03T21:54:47.121Z,3.00
2023-09-03T21:56:49.840Z,2.65
2023-09-03T21:58:52.508Z,2.63
2023-09-03T22:00:57.215Z,3.38
2023-09-03T22:02:59.956Z,2.38
2023-09-03T22:05:06.263Z,2.92
2023-09-03T22:07:09.201Z,2.55
2023-09-03T22:09:11.849Z,2.53
2023-09-03T22:11:14.711Z,2.38
2023-09-03T22:13:17.456Z,2.92
2023-09-03T22:15:19.376Z,2.95
2023-09-03T22:17:23.362Z,2.75
2023-09-03T22:19:27.010Z,2.35
2023-09-03T22:21:29.866Z,2.65
2023-09-03T22:23:31.569Z,2.60
2023-09-03T22:25:34.211Z,2.30
2023-09-03T22:27:36.886Z,2.92
2023-09-03T22:29:39.567Z,2.90
2023-09-03T22:31:42.334Z,2.83
2023-09-03T22:33:47.199Z,2.28
2023-09-03T22:35:48.876Z,2.28
2023-09-03T22:37:51.548Z,2.30
2023-09-03T22:39:53.231Z,2.33
2023-09-03T22:41:56.912Z,2.70
2023-09-03T22:43:59.860Z,2.63
2023-09-03T22:46:02.652Z,2.65
2023-09-03T22:48:05.751Z,2.30
2023-09-03T22:50:10.821Z,2.80
2023-09-03T22:52:15.831Z,2.60
2023-09-03T22:54:18.026Z,2.40
2023-09-03T22:56:20.677Z,2.55
2023-09-03T22:58:23.621Z,2.75
2023-09-03T23:00:26.555Z,2.90
2023-09-03T23:02:29.244Z,2.75
2023-09-03T23:04:32.143Z,2.50
2023-09-03T23:06:36.154Z,2.50
2023-09-03T23:08:38.830Z,2.58
2023-09-03T23:10:41.507Z,3.10
2023-09-03T23:12:44.226Z,2.60
2023-09-03T23:14:46.880Z,2.70
2023-09-03T23:16:49.880Z,2.38
2023-09-03T23:18:52.630Z,2.53
2023-09-03T23:20:55.159Z,2.30
2023-09-03T23:22:59.143Z,2.10
2023-09-03T23:25:02.087Z,2.47
2023-09-03T23:27:05.046Z,2.50
2023-09-03T23:29:07.741Z,2.50
2023-09-03T23:31:10.441Z,2.10
2023-09-03T23:33:13.088Z,2.45
2023-09-03T23:35:15.962Z,2.33
2023-09-03T23:37:17.697Z,2.60
2023-09-03T23:39:21.708Z,2.30
2023-09-03T23:41:24.495Z,2.20
2023-09-03T23:43:27.362Z,2.45
2023-09-03T23:45:30.097Z,2.40
2023-09-03T23:47:32.791Z,2.58
2023-09-03T23:49:35.518Z,2.30
2023-09-03T23:51:38.807Z,2.50
2023-09-03T23:53:45.167Z,2.78
2023-09-03T23:55:49.244Z,2.53
2023-09-03T23:57:51.923Z,3.55
2023-09-03T23:59:54.571Z,2.58
